Time;durP1;ratioP1;P1;durP2;ratioP2;P2;SDS_P1;SDS_P2;PMS_P1;PMS_P2;Temp;Humidity;BMP_temperature;BMP_pressure;BME280_temperature;BME280_humidity;BME280_pressure;Samples;Min_cycle;Max_cycle;Signal;HPM_P1;HPM_P2
2024/02/06 05:31:25;;;;;;;0.10;0.10;;;10.80;80.80;;;;;;6150097;23;20540;-73
2024/02/06 05:33:50;;;;;;;0.10;0.10;;;10.80;80.60;;;;;;6155791;23;20005;-73
2024/02/06 05:36:16;;;;;;;0.10;0.10;;;10.80;80.70;;;;;;6158979;23;20009;-73
2024/02/06 05:38:41;;;;;;;0.10;0.10;;;10.90;80.60;;;;;;6158412;23;20002;-74
2024/02/06 05:41:14;;;;;;;0.10;0.10;;;10.90;80.60;;;;;;6159016;23;19998;-73
2024/02/06 05:43:39;;;;;;;0.10;0.10;;;10.90;80.70;;;;;;6158726;23;20341;-74
2024/02/06 05:46:05;;;;;;;0.10;0.10;;;10.90;80.80;;;;;;6132895;23;20100;-74
2024/02/06 05:48:31;;;;;;;0.10;0.10;;;10.80;80.80;;;;;;6132762;23;20005;-72
2024/02/06 05:50:59;;;;;;;0.10;0.10;;;10.90;80.80;;;;;;6158492;23;20025;-72
2024/02/06 05:53:25;;;;;;;0.10;0.10;;;10.90;80.70;;;;;;6158321;23;20008;-72
2024/02/06 05:55:50;;;;;;;0.10;0.10;;;10.90;80.70;;;;;;6125318;23;20085;-72
2024/02/06 05:58:16;;;;;;;0.10;0.10;;;10.90;80.80;;;;;;6156476;23;20005;-73
2024/02/06 06:00:42;;;;;;;0.10;0.10;;;10.80;80.70;;;;;;6157123;23;20089;-72
2024/02/06 06:03:07;;;;;;;0.10;0.10;;;10.90;80.90;;;;;;6158593;23;20071;-75
2024/02/06 06:05:33;;;;;;;0.10;0.10;;;10.90;80.70;;;;;;6158439;23;20008;-74
2024/02/06 06:07:59;;;;;;;0.10;0.10;;;10.90;80.70;;;;;;6134030;23;20056;-75
2024/02/06 06:10:25;;;;;;;0.10;0.10;;;11.00;80.60;;;;;;6160917;23;20009;-75
2024/02/06 06:12:51;;;;;;;0.10;0.10;;;11.00;80.50;;;;;;6156965;23;20005;-73
2024/02/06 06:15:17;;;;;;;0.10;0.10;;;11.00;80.40;;;;;;6134533;23;20032;-74
2024/02/06 06:17:43;;;;;;;0.10;0.10;;;11.10;80.30;;;;;;6134293;23;20012;-74
2024/02/06 06:20:10;;;;;;;0.10;0.10;;;11.10;80.30;;;;;;6135968;23;20016;-75
2024/02/06 06:22:36;;;;;;;0.10;0.10;;;11.10;80.20;;;;;;6134304;23;20315;-75
2024/02/06 06:25:01;;;;;;;0.10;0.10;;;11.10;80.20;;;;;;6160460;23;20088;-76
2024/02/06 06:27:27;;;;;;;0.10;0.10;;;11.10;80.10;;;;;;6134726;23;20438;-76
2024/02/06 06:29:53;;;;;;;0.10;0.10;;;11.10;79.90;;;;;;6159834;23;20419;-81
2024/02/06 06:32:18;;;;;;;0.10;0.10;;;11.10;80.10;;;;;;6155022;23;20014;-83
2024/02/06 06:34:44;;;;;;;0.10;0.10;;;11.00;80.00;;;;;;6158210;23;20061;-82
2024/02/06 06:37:10;;;;;;;0.10;0.10;;;11.00;80.20;;;;;;6158632;23;20009;-83
2024/02/06 06:39:35;;;;;;;0.10;0.10;;;11.00;80.10;;;;;;6160162;23;20008;-83
2024/02/06 06:42:01;;;;;;;0.10;0.10;;;11.00;80.00;;;;;;6158624;23;20565;-84
2024/02/06 06:44:27;;;;;;;0.10;0.10;;;11.00;80.00;;;;;;6158640;23;20056;-89
2024/02/06 06:46:53;;;;;;;0.10;0.10;;;11.00;80.00;;;;;;6158024;23;20008;-82
2024/02/06 06:49:19;;;;;;;0.10;0.10;;;11.00;80.10;;;;;;6158751;23;20006;-80
2024/02/06 06:51:45;;;;;;;0.10;0.10;;;11.00;79.90;;;;;;6160484;23;20036;-80
2024/02/06 06:54:10;;;;;;;0.10;0.10;;;11.00;79.90;;;;;;6160061;23;20025;-79
2024/02/06 06:56:36;;;;;;;0.10;0.10;;;11.00;79.90;;;;;;6159068;23;20072;-80
2024/02/06 06:59:02;;;;;;;0.10;0.10;;;11.00;80.00;;;;;;6159856;23;20002;-80
2024/02/06 07:01:27;;;;;;;0.10;0.10;;;11.00;80.10;;;;;;6158334;23;20009;-80
2024/02/06 07:03:53;;;;;;;0.10;0.10;;;11.00;80.10;;;;;;6160164;23;20506;-80
2024/02/06 07:06:18;;;;;;;0.10;0.10;;;11.10;80.00;;;;;;6158439;23;20012;-80
2024/02/06 07:08:44;;;;;;;0.10;0.10;;;11.10;80.00;;;;;;6159767;23;19998;-81
2024/02/06 07:11:10;;;;;;;0.10;0.10;;;11.00;79.90;;;;;;6158701;23;20008;-80
2024/02/06 07:13:36;;;;;;;0.10;0.10;;;11.10;80.00;;;;;;6160260;23;20001;-80
2024/02/06 07:16:01;;;;;;;0.10;0.10;;;11.10;80.00;;;;;;6160281;23;20463;-80
2024/02/06 07:18:27;;;;;;;0.10;0.10;;;11.10;79.90;;;;;;6159666;23;20012;-80
2024/02/06 07:20:53;;;;;;;0.10;0.10;;;11.10;79.90;;;;;;6160347;23;20005;-80
2024/02/06 07:23:18;;;;;;;0.10;0.10;;;11.10;79.90;;;;;;6158437;23;20014;-80
2024/02/06 07:25:44;;;;;;;0.10;0.10;;;11.00;80.10;;;;;;6158559;23;20442;-80
2024/02/06 07:28:10;;;;;;;0.10;0.10;;;11.10;80.10;;;;;;6159700;23;19997;-80
2024/02/06 07:30:36;;;;;;;0.10;0.10;;;11.10;80.10;;;;;;6159784;23;20013;-80
2024/02/06 07:33:01;;;;;;;0.10;0.10;;;11.10;80.00;;;;;;6160161;23;20024;-80
2024/02/06 07:35:27;;;;;;;0.10;0.10;;;11.10;80.00;;;;;;6134166;23;20012;-80
2024/02/06 07:37:53;;;;;;;0.10;0.10;;;11.10;80.00;;;;;;6160101;23;20089;-80
2024/02/06 07:40:19;;;;;;;0.10;0.10;;;11.10;80.00;;;;;;6159653;23;20059;-80
2024/02/06 07:42:49;;;;;;;0.10;0.10;;;11.20;79.90;;;;;;6133699;23;20009;-80
2024/02/06 07:45:15;;;;;;;0.10;0.10;;;11.20;79.90;;;;;;6159784;23;20084;-80
2024/02/06 07:47:41;;;;;;;0.10;0.10;;;11.10;79.80;;;;;;6159856;23;20005;-80
2024/02/06 07:50:08;;;;;;;0.10;0.10;;;11.10;79.60;;;;;;6159810;23;19998;-80
2024/02/06 07:52:33;;;;;;;0.10;0.10;;;11.20;79.70;;;;;;6133929;23;20056;-80
2024/02/06 07:54:59;;;;;;;0.10;0.10;;;11.10;79.70;;;;;;6159940;23;20080;-80
2024/02/06 07:57:25;;;;;;;0.10;0.10;;;11.10;79.70;;;;;;6133154;23;20080;-79
2024/02/06 07:59:50;;;;;;;0.10;0.10;;;11.10;79.80;;;;;;6159970;23;20001;-80
2024/02/06 08:02:16;;;;;;;0.10;0.10;;;11.10;79.60;;;;;;6159995;23;20316;-80
2024/02/06 08:04:45;;;;;;;0.10;0.10;;;11.20;79.70;;;;;;6159528;23;20064;-80
2024/02/06 08:07:11;;;;;;;0.10;0.10;;;11.20;79.70;;;;;;6159236;23;20009;-80
2024/02/06 08:09:36;;;;;;;0.15;0.15;;;11.20;79.60;;;;;;6159255;23;19998;-80
2024/02/06 08:12:02;;;;;;;0.10;0.10;;;11.20;79.30;;;;;;6159781;23;20334;-80
2024/02/06 08:14:28;;;;;;;0.10;0.10;;;11.20;79.40;;;;;;6133557;23;20001;-80
2024/02/06 08:16:53;;;;;;;0.10;0.10;;;11.20;79.40;;;;;;6159555;23;20009;-80
2024/02/06 08:19:19;;;;;;;0.10;0.10;;;11.20;79.40;;;;;;6159243;23;20029;-80
2024/02/06 08:21:45;;;;;;;0.10;0.10;;;11.20;79.40;;;;;;6160057;23;20053;-80
2024/02/06 08:24:10;;;;;;;0.10;0.10;;;11.20;79.10;;;;;;6159095;23;20344;-80
2024/02/06 08:26:36;;;;;;;0.10;0.10;;;11.20;79.20;;;;;;6159887;23;20011;-80
2024/02/06 08:29:01;;;;;;;0.10;0.10;;;11.20;79.00;;;;;;6159233;23;20438;-80
2024/02/06 08:31:27;;;;;;;0.10;0.10;;;11.20;79.00;;;;;;6144361;23;20013;-80
2024/02/06 08:33:54;;;;;;;0.10;0.10;;;11.20;79.00;;;;;;6157523;23;20002;-80
2024/02/06 08:36:19;;;;;;;0.10;0.10;;;11.20;79.00;;;;;;6159801;23;20009;-79
2024/02/06 08:38:45;;;;;;;0.10;0.10;;;11.20;79.20;;;;;;6157696;23;20038;-80
2024/02/06 08:41:11;;;;;;;0.10;0.10;;;11.20;79.10;;;;;;6158185;23;20410;-80
2024/02/06 08:43:37;;;;;;;0.10;0.10;;;11.20;78.80;;;;;;6159644;23;20009;-80
2024/02/06 08:46:02;;;;;;;0.10;0.10;;;11.20;78.70;;;;;;6159044;23;20048;-80
2024/02/06 08:48:28;;;;;;;0.10;0.10;;;11.30;79.00;;;;;;6159677;23;19998;-80
2024/02/06 08:50:55;;;;;;;0.10;0.10;;;11.30;78.90;;;;;;6159263;23;20438;-80
2024/02/06 08:53:21;;;;;;;0.10;0.10;;;11.40;78.60;;;;;;6159757;23;20093;-80
2024/02/06 08:55:46;;;;;;;0.10;0.10;;;11.40;78.50;;;;;;6159491;23;20002;-80
2024/02/06 08:58:12;;;;;;;0.10;0.10;;;11.40;78.20;;;;;;6158639;23;20008;-80
2024/02/06 09:00:38;;;;;;;0.10;0.10;;;11.40;78.30;;;;;;6159069;23;20005;-80
2024/02/06 09:03:04;;;;;;;0.10;0.10;;;11.50;78.30;;;;;;6157943;23;20006;-80
2024/02/06 09:05:29;;;;;;;0.10;0.10;;;11.60;78.00;;;;;;6158879;23;20001;-80
2024/02/06 09:07:55;;;;;;;0.10;0.10;;;11.70;77.80;;;;;;6157850;23;20063;-80
2024/02/06 09:10:22;;;;;;;0.10;0.10;;;11.70;78.00;;;;;;6159127;23;20003;-80
2024/02/06 09:12:48;;;;;;;0.10;0.10;;;11.80;77.90;;;;;;6159057;23;20005;-80
2024/02/06 09:15:14;;;;;;;0.10;0.10;;;11.80;77.60;;;;;;6157786;23;20009;-80
2024/02/06 09:17:39;;;;;;;0.10;0.10;;;11.90;77.50;;;;;;6159474;23;20001;-80
2024/02/06 09:20:05;;;;;;;0.10;0.10;;;11.90;77.40;;;;;;6158727;23;20005;-80
2024/02/06 09:22:31;;;;;;;0.20;0.20;;;11.80;77.40;;;;;;6158195;23;20315;-80
2024/02/06 09:24:57;;;;;;;0.10;0.10;;;11.80;77.30;;;;;;6156959;23;20350;-80
2024/02/06 09:27:23;;;;;;;0.10;0.10;;;11.80;77.60;;;;;;6157684;23;20013;-80
2024/02/06 09:29:48;;;;;;;0.10;0.10;;;11.70;77.80;;;;;;6158592;23;20001;-80
2024/02/06 09:32:14;;;;;;;0.10;0.10;;;11.70;77.90;;;;;;6159297;23;20017;-80
2024/02/06 09:34:40;;;;;;;0.10;0.10;;;11.60;77.80;;;;;;6158615;23;20328;-80
2024/02/06 09:37:05;;;;;;;0.10;0.10;;;11.70;77.70;;;;;;6159563;23;20001;-80
2024/02/06 09:39:31;;;;;;;0.10;0.10;;;11.70;77.80;;;;;;6133136;23;20097;-80
2024/02/06 09:42:01;;;;;;;0.10;0.10;;;11.70;78.00;;;;;;6159857;23;20084;-80
2024/02/06 09:44:30;;;;;;;0.10;0.10;;;11.70;78.10;;;;;;6134873;23;20033;-80
2024/02/06 09:46:59;;;;;;;0.10;0.10;;;11.60;78.10;;;;;;6160833;23;20060;-80
2024/02/06 09:49:25;;;;;;;0.10;0.10;;;11.60;78.10;;;;;;6135247;23;20012;-80
2024/02/06 09:51:52;;;;;;;0.10;0.10;;;11.60;78.30;;;;;;6161094;23;20002;-80
2024/02/06 09:54:22;;;;;;;0.10;0.10;;;11.70;78.30;;;;;;6161051;23;20008;-80
2024/02/06 09:56:48;;;;;;;0.10;0.10;;;11.70;78.30;;;;;;6160995;23;20349;-80
2024/02/06 09:59:16;;;;;;;0.10;0.10;;;11.70;78.10;;;;;;6160993;23;20065;-80
2024/02/06 10:01:43;;;;;;;0.10;0.10;;;11.80;78.30;;;;;;6161047;23;20065;-80
2024/02/06 10:04:12;;;;;;;0.10;0.10;;;11.70;78.20;;;;;;6161143;23;20012;-80
2024/02/06 10:06:38;;;;;;;0.10;0.10;;;11.80;78.00;;;;;;6160360;23;20001;-80
2024/02/06 10:09:04;;;;;;;0.10;0.10;;;11.90;78.10;;;;;;6161063;23;19997;-80
2024/02/06 10:11:34;;;;;;;0.13;0.13;;;11.90;77.90;;;;;;6135078;23;20311;-80
2024/02/06 10:14:00;;;;;;;0.10;0.10;;;11.90;78.00;;;;;;6134188;23;20002;-80
2024/02/06 10:16:26;;;;;;;0.10;0.10;;;12.00;78.00;;;;;;6160966;23;20428;-80
2024/02/06 10:18:53;;;;;;;0.10;0.10;;;12.00;77.90;;;;;;6134375;23;20054;-79
2024/02/06 10:21:20;;;;;;;0.10;0.10;;;12.00;77.90;;;;;;6160663;23;20001;-80
2024/02/06 10:23:46;;;;;;;0.10;0.10;;;12.10;77.90;;;;;;6161038;23;20006;-80
2024/02/06 10:26:17;;;;;;;0.10;0.10;;;12.20;77.80;;;;;;6134186;23;20005;-79
2024/02/06 10:28:43;;;;;;;0.10;0.10;;;12.20;77.70;;;;;;6160447;23;20465;-80
2024/02/06 10:31:10;;;;;;;0.10;0.10;;;12.30;77.70;;;;;;6160706;23;20014;-79
2024/02/06 10:33:36;;;;;;;0.10;0.10;;;12.30;77.60;;;;;;6133942;23;20002;-79
2024/02/06 10:36:01;;;;;;;0.10;0.10;;;12.40;77.20;;;;;;6161057;23;20013;-79
2024/02/06 10:38:27;;;;;;;0.10;0.10;;;12.60;77.00;;;;;;6134618;23;20005;-79
2024/02/06 10:40:53;;;;;;;0.10;0.10;;;12.70;76.70;;;;;;6160299;23;20338;-80
2024/02/06 10:43:19;;;;;;;0.20;0.20;;;12.80;76.50;;;;;;6134416;23;20012;-80
2024/02/06 10:45:44;;;;;;;0.20;0.20;;;13.00;76.20;;;;;;6134444;23;20330;-79
2024/02/06 10:48:11;;;;;;;0.20;0.20;;;13.30;75.70;;;;;;6160449;23;20350;-79
2024/02/06 10:50:36;;;;;;;0.20;0.20;;;13.60;74.80;;;;;;6160703;23;20024;-79
2024/02/06 10:53:06;;;;;;;0.20;0.20;;;13.90;73.80;;;;;;6159574;23;20184;-79
2024/02/06 10:55:31;;;;;;;0.10;0.10;;;14.20;73.00;;;;;;6160897;23;20009;-79
2024/02/06 10:58:07;;;;;;;0.10;0.10;;;14.30;72.80;;;;;;6160384;23;20001;-79
2024/02/06 11:00:34;;;;;;;0.10;0.10;;;14.00;72.00;;;;;;6133803;23;20358;-79
2024/02/06 11:03:03;;;;;;;0.10;0.10;;;13.90;72.60;;;;;;6160643;23;20008;-79
2024/02/06 11:05:48;;;;;;;0.10;0.10;;;13.80;73.00;;;;;;6160273;23;20002;-79
2024/02/06 11:08:19;;;;;;;0.20;0.20;;;13.70;73.10;;;;;;6159922;23;20001;-79
2024/02/06 11:10:56;;;;;;;0.10;0.10;;;13.80;72.80;;;;;;6160128;23;20006;-79
2024/02/06 11:13:39;;;;;;;0.10;0.10;;;13.80;72.90;;;;;;6160394;23;19997;-80
2024/02/06 11:16:08;;;;;;;;;;;13.90;72.90;;;;;;6133526;23;20444;-79
2024/02/06 11:18:46;;;;;;;0.10;0.10;;;13.90;72.70;;;;;;6160444;23;19928;-79
2024/02/06 11:21:14;;;;;;;0.10;0.10;;;13.90;72.70;;;;;;6160016;23;20006;-79
2024/02/06 11:23:41;;;;;;;0.10;0.10;;;14.00;73.00;;;;;;6160403;23;20040;-80
2024/02/06 11:26:08;;;;;;;0.13;0.13;;;14.00;72.90;;;;;;6160055;23;20013;-80
2024/02/06 11:28:34;;;;;;;0.10;0.10;;;13.90;72.40;;;;;;6134001;23;20140;-80
2024/02/06 11:31:03;;;;;;;0.10;0.10;;;14.00;72.30;;;;;;6138888;23;20021;-79
2024/02/06 11:33:35;;;;;;;0.10;0.10;;;14.00;72.20;;;;;;6158370;23;20012;-79
2024/02/06 11:36:16;;;;;;;0.10;0.10;;;14.10;72.30;;;;;;6160261;23;20110;-79
2024/02/06 11:38:42;;;;;;;0.10;0.10;;;14.20;71.90;;;;;;6159809;23;20728;-79
2024/02/06 11:41:10;;;;;;;0.10;0.10;;;14.20;72.10;;;;;;6160164;23;20033;-79
2024/02/06 11:43:36;;;;;;;0.10;0.10;;;14.20;71.40;;;;;;6159851;23;20002;-79
2024/02/06 11:46:03;;;;;;;0.10;0.10;;;14.30;71.60;;;;;;6159836;23;20001;-80
2024/02/06 11:48:29;;;;;;;0.10;0.10;;;14.30;71.60;;;;;;6159949;23;20061;-80
2024/02/06 11:50:55;;;;;;;0.10;0.10;;;14.30;71.50;;;;;;6158443;23;20054;-79
2024/02/06 11:53:25;;;;;;;0.10;0.10;;;14.40;71.10;;;;;;6159890;23;19998;-80
2024/02/06 11:55:51;;;;;;;0.13;0.13;;;14.40;70.70;;;;;;6183576;23;20067;-79
2024/02/06 11:58:17;;;;;;;0.10;0.10;;;14.50;70.70;;;;;;6158275;23;20341;-79
2024/02/06 12:00:43;;;;;;;0.10;0.10;;;14.60;70.20;;;;;;6158556;23;20089;-79
2024/02/06 12:03:11;;;;;;;0.10;0.10;;;14.70;69.80;;;;;;6159373;23;20378;-79
2024/02/06 12:05:42;;;;;;;0.10;0.10;;;14.70;70.00;;;;;;6159312;23;20001;-79
2024/02/06 12:08:10;;;;;;;0.10;0.10;;;14.60;69.80;;;;;;6158406;23;20093;-79
2024/02/06 12:10:36;;;;;;;0.10;0.10;;;14.60;70.10;;;;;;6158236;23;20133;-79
2024/02/06 12:13:07;;;;;;;0.10;0.10;;;14.50;70.60;;;;;;6157952;23;20002;-79
2024/02/06 12:15:35;;;;;;;0.10;0.10;;;14.40;70.70;;;;;;6159742;23;20001;-79
2024/02/06 12:18:04;;;;;;;0.10;0.10;;;14.40;70.70;;;;;;6159687;23;20006;-79
2024/02/06 12:20:31;;;;;;;0.10;0.10;;;14.40;71.00;;;;;;6157918;23;20446;-79
2024/02/06 12:23:03;;;;;;;0.10;0.10;;;14.30;70.90;;;;;;6159588;23;20033;-79
2024/02/06 12:25:30;;;;;;;0.10;0.10;;;14.30;71.40;;;;;;6158088;23;20064;-78
2024/02/06 12:28:12;;;;;;;0.10;0.10;;;14.30;71.30;;;;;;6159285;23;20002;-79
2024/02/06 12:30:40;;;;;;;0.10;0.10;;;14.40;71.60;;;;;;6159775;23;20009;-79
2024/02/06 12:33:06;;;;;;;0.10;0.10;;;14.30;71.60;;;;;;6159663;23;20221;-79
2024/02/06 12:35:35;;;;;;;0.10;0.10;;;14.30;71.80;;;;;;6159779;23;20057;-79
2024/02/06 12:38:05;;;;;;;0.00;0.00;;;14.30;72.10;;;;;;6159365;23;20076;-79
2024/02/06 12:40:33;;;;;;;0.10;0.10;;;14.20;72.20;;;;;;6159615;23;20006;-79
2024/02/06 12:43:06;;;;;;;0.10;0.10;;;14.10;72.50;;;;;;6159169;23;20006;-79
2024/02/06 12:45:34;;;;;;;0.17;0.10;;;14.10;72.60;;;;;;6159247;23;20012;-79
2024/02/06 12:48:00;;;;;;;0.10;0.10;;;14.10;72.80;;;;;;6159292;23;20338;-79
2024/02/06 12:50:27;;;;;;;0.13;0.10;;;14.20;72.60;;;;;;6159131;23;20005;-79
2024/02/06 12:52:57;;;;;;;0.10;0.10;;;14.10;72.70;;;;;;6133175;23;20028;-79
2024/02/06 12:55:23;;;;;;;0.10;0.10;;;14.10;72.90;;;;;;6158879;23;20081;-79
2024/02/06 12:57:53;;;;;;;0.10;0.10;;;14.10;72.90;;;;;;6158853;23;20012;-79
2024/02/06 13:00:18;;;;;;;0.10;0.10;;;13.90;73.40;;;;;;6159450;23;20006;-79
2024/02/06 13:02:44;;;;;;;0.00;0.00;;;13.90;73.50;;;;;;6159006;23;20009;-79
2024/02/06 13:05:12;;;;;;;0.10;0.10;;;13.90;73.90;;;;;;6158919;23;20411;-79
2024/02/06 13:07:38;;;;;;;0.10;0.10;;;13.90;74.10;;;;;;6159022;23;19997;-79
2024/02/06 13:10:07;;;;;;;0.10;0.10;;;13.90;74.40;;;;;;6159531;23;20018;-79
2024/02/06 13:12:33;;;;;;;0.00;0.00;;;13.90;74.80;;;;;;6159188;23;19998;-79
2024/02/06 13:15:02;;;;;;;0.10;0.10;;;13.90;75.00;;;;;;6159172;23;20002;-79
2024/02/06 13:17:27;;;;;;;0.10;0.10;;;13.80;75.30;;;;;;6158851;23;19997;-79
2024/02/06 13:20:05;;;;;;;0.00;0.00;;;13.80;75.50;;;;;;6159430;23;20056;-79
2024/02/06 13:22:31;;;;;;;0.10;0.10;;;13.80;75.70;;;;;;6159019;23;20002;-79
2024/02/06 13:24:57;;;;;;;0.10;0.10;;;13.70;76.10;;;;;;6158954;23;20078;-79
2024/02/06 13:27:23;;;;;;;0.10;0.10;;;13.80;76.40;;;;;;6158585;23;20011;-79
2024/02/06 13:29:48;;;;;;;0.10;0.10;;;13.80;76.30;;;;;;6159007;23;20085;-79
2024/02/06 13:32:14;;;;;;;0.10;0.10;;;13.90;76.30;;;;;;6158912;23;20501;-79
2024/02/06 13:34:39;;;;;;;0.10;0.10;;;14.00;76.30;;;;;;6158854;23;20076;-79
2024/02/06 13:37:05;;;;;;;0.10;0.10;;;14.10;76.10;;;;;;6133426;23;20037;-79
2024/02/06 13:39:33;;;;;;;0.10;0.10;;;14.20;75.90;;;;;;6158992;23;20008;-79
2024/02/06 13:41:59;;;;;;;0.10;0.10;;;14.30;75.90;;;;;;6158588;23;20005;-78
2024/02/06 13:44:24;;;;;;;0.10;0.10;;;14.40;75.60;;;;;;6133212;23;20009;-79
2024/02/06 13:46:50;;;;;;;0.10;0.10;;;14.50;75.50;;;;;;6159024;23;20036;-79
2024/02/06 13:49:16;;;;;;;0.10;0.10;;;14.50;75.40;;;;;;6132961;23;20005;-79
2024/02/06 13:51:41;;;;;;;0.10;0.10;;;14.60;75.50;;;;;;6133116;23;20432;-79
2024/02/06 13:54:07;;;;;;;0.10;0.10;;;14.60;75.10;;;;;;6133016;23;20033;-79
2024/02/06 13:56:33;;;;;;;0.10;0.10;;;14.50;75.40;;;;;;6132708;23;20071;-79
2024/02/06 13:58:59;;;;;;;0.10;0.10;;;14.50;75.60;;;;;;6132731;23;20084;-79
2024/02/06 14:01:24;;;;;;;0.10;0.10;;;14.40;76.00;;;;;;6159081;23;20029;-79
2024/02/06 14:03:50;;;;;;;0.10;0.10;;;14.40;76.10;;;;;;6133223;23;20009;-79
2024/02/06 14:06:18;;;;;;;0.10;0.10;;;14.40;76.10;;;;;;6158618;23;20010;-79
2024/02/06 14:08:43;;;;;;;0.10;0.10;;;14.40;76.20;;;;;;6132825;23;20002;-79
2024/02/06 14:11:09;;;;;;;0.10;0.10;;;14.40;76.30;;;;;;6159240;23;20060;-79
2024/02/06 14:13:35;;;;;;;0.10;0.10;;;14.30;76.50;;;;;;6159118;23;20073;-79
2024/02/06 14:16:01;;;;;;;0.10;0.10;;;14.20;76.80;;;;;;6158635;23;20013;-78
2024/02/06 14:18:27;;;;;;;0.10;0.10;;;14.20;77.00;;;;;;6159098;23;20005;-79
2024/02/06 14:20:56;;;;;;;0.10;0.10;;;14.10;77.10;;;;;;6159018;23;20005;-78
2024/02/06 14:23:22;;;;;;;0.10;0.10;;;14.10;77.50;;;;;;6158436;23;20007;-79
2024/02/06 14:25:47;;;;;;;0.10;0.10;;;14.10;77.50;;;;;;6158817;23;20580;-79
2024/02/06 14:28:14;;;;;;;0.10;0.10;;;14.10;77.80;;;;;;6160272;23;20033;-79
2024/02/06 14:30:42;;;;;;;0.10;0.10;;;14.10;77.80;;;;;;6160404;23;20061;-79
2024/02/06 14:33:08;;;;;;;0.10;0.10;;;14.10;77.90;;;;;;6134318;23;20010;-79
2024/02/06 14:35:35;;;;;;;0.10;0.10;;;14.00;78.10;;;;;;6160651;23;20001;-79
2024/02/06 14:38:00;;;;;;;0.10;0.10;;;14.00;79.00;;;;;;6134201;23;20010;-79
2024/02/06 14:40:26;;;;;;;0.10;0.10;;;13.80;80.80;;;;;;6134249;23;20009;-79
2024/02/06 14:42:52;;;;;;;0.00;0.00;;;13.70;81.30;;;;;;6134654;23;20005;-79
2024/02/06 14:45:17;;;;;;;0.10;0.10;;;13.70;81.30;;;;;;6160485;23;20001;-79
2024/02/06 14:47:43;;;;;;;0.10;0.10;;;13.80;81.30;;;;;;6160395;23;20036;-79
2024/02/06 14:50:09;;;;;;;0.10;0.10;;;13.80;81.30;;;;;;6134712;23;20001;-79
2024/02/06 14:52:34;;;;;;;0.10;0.10;;;13.80;81.40;;;;;;6160485;23;20002;-79
2024/02/06 14:55:00;;;;;;;0.10;0.10;;;13.70;81.80;;;;;;6160169;23;20012;-79
2024/02/06 14:57:26;;;;;;;0.00;0.00;;;13.70;81.90;;;;;;6160466;23;20005;-79
2024/02/06 14:59:51;;;;;;;0.10;0.10;;;13.70;82.20;;;;;;6159988;23;20077;-79
2024/02/06 15:02:17;;;;;;;0.10;0.10;;;13.60;82.50;;;;;;6134808;23;20037;-79
2024/02/06 15:04:42;;;;;;;0.10;0.10;;;13.70;82.70;;;;;;6160076;23;20375;-79
2024/02/06 15:07:08;;;;;;;0.10;0.10;;;13.70;82.80;;;;;;6160351;23;20012;-79
2024/02/06 15:09:36;;;;;;;0.10;0.10;;;13.80;82.50;;;;;;6160069;23;20080;-79
2024/02/06 15:12:01;;;;;;;0.10;0.10;;;13.90;82.40;;;;;;6159650;23;20375;-79
2024/02/06 15:14:28;;;;;;;0.10;0.10;;;13.90;82.40;;;;;;6160582;23;20006;-79
2024/02/06 15:16:54;;;;;;;0.10;0.10;;;13.90;82.30;;;;;;6160112;23;20016;-79
2024/02/06 15:19:19;;;;;;;0.10;0.10;;;13.90;81.80;;;;;;6159969;23;20041;-79
2024/02/06 15:21:45;;;;;;;0.10;0.10;;;13.90;81.80;;;;;;6160334;23;20156;-79
2024/02/06 15:24:11;;;;;;;0.10;0.10;;;13.80;82.00;;;;;;6160398;23;20012;-79
2024/02/06 15:26:39;;;;;;;0.10;0.10;;;13.80;82.30;;;;;;6159838;23;20005;-79
2024/02/06 15:29:04;;;;;;;0.10;0.10;;;13.80;82.10;;;;;;6159956;23;20358;-79
2024/02/06 15:31:30;;;;;;;0.10;0.10;;;13.80;82.30;;;;;;6159951;23;20037;-79
2024/02/06 15:33:56;;;;;;;0.10;0.10;;;13.80;82.30;;;;;;6160220;23;20414;-79
2024/02/06 15:36:21;;;;;;;0.10;0.10;;;13.80;82.40;;;;;;6160147;23;20002;-79
2024/02/06 15:38:47;;;;;;;0.00;0.00;;;13.70;82.40;;;;;;6159673;23;20001;-79
2024/02/06 15:41:13;;;;;;;0.10;0.10;;;13.80;82.50;;;;;;6159964;23;20387;-79
2024/02/06 15:43:38;;;;;;;0.05;0.05;;;13.70;82.70;;;;;;6134114;23;20013;-79
2024/02/06 15:46:08;;;;;;;0.10;0.10;;;13.80;82.80;;;;;;6159564;23;20005;-79
2024/02/06 15:48:35;;;;;;;0.10;0.10;;;13.80;82.70;;;;;;6160139;23;20005;-77
2024/02/06 15:51:01;;;;;;;0.10;0.10;;;13.80;82.70;;;;;;6159747;23;20061;-80
2024/02/06 15:53:26;;;;;;;0.10;0.10;;;13.90;82.70;;;;;;6159768;23;20001;-79
2024/02/06 15:55:54;;;;;;;0.10;0.10;;;13.90;82.70;;;;;;6134211;23;20033;-79
2024/02/06 15:58:20;;;;;;;0.10;0.10;;;13.90;82.70;;;;;;6133172;23;20005;-81
2024/02/06 16:00:46;;;;;;;0.10;0.10;;;13.80;82.80;;;;;;6158648;23;20013;-80
2024/02/06 16:03:11;;;;;;;0.10;0.10;;;13.70;83.00;;;;;;6159235;23;20008;-84
2024/02/06 16:05:37;;;;;;;0.10;0.10;;;13.80;83.10;;;;;;6159572;23;20005;-80
2024/02/06 16:08:04;;;;;;;0.10;0.10;;;13.80;83.00;;;;;;6158994;23;20112;-79
2024/02/06 16:10:30;;;;;;;0.10;0.10;;;13.80;83.00;;;;;;6159549;23;20435;-80
2024/02/06 16:12:56;;;;;;;0.10;0.10;;;13.70;83.10;;;;;;6159280;23;20028;-80
2024/02/06 16:15:22;;;;;;;0.10;0.10;;;13.80;83.00;;;;;;6160237;23;20005;-80
2024/02/06 16:17:47;;;;;;;0.10;0.10;;;13.80;83.10;;;;;;6159446;23;20521;-79
2024/02/06 16:20:14;;;;;;;0.10;0.10;;;13.70;83.10;;;;;;6159384;23;20427;-79
2024/02/06 16:22:40;;;;;;;0.10;0.10;;;13.70;83.30;;;;;;6133159;23;20006;-79
2024/02/06 16:25:07;;;;;;;0.10;0.10;;;13.70;83.30;;;;;;6159310;23;20442;-80
2024/02/06 16:27:34;;;;;;;0.10;0.10;;;13.70;83.40;;;;;;6133164;23;20012;-79
2024/02/06 16:30:00;;;;;;;0.20;0.10;;;13.70;83.30;;;;;;6133331;23;20005;-79
2024/02/06 16:32:25;;;;;;;0.10;0.10;;;13.70;83.50;;;;;;6159873;23;20013;-79
2024/02/06 16:34:51;;;;;;;0.10;0.10;;;13.60;83.40;;;;;;6159476;23;19998;-79
2024/02/06 16:37:17;;;;;;;0.08;0.08;;;13.60;83.50;;;;;;6134006;23;20013;-79
2024/02/06 16:39:42;;;;;;;0.10;0.10;;;13.60;83.60;;;;;;6159633;23;20048;-80
2024/02/06 16:42:08;;;;;;;0.10;0.10;;;13.50;83.70;;;;;;6158781;23;20005;-78
2024/02/06 16:44:34;;;;;;;0.10;0.10;;;13.60;83.80;;;;;;6131973;23;20085;-79
2024/02/06 16:47:00;;;;;;;0.10;0.10;;;13.50;83.90;;;;;;6131927;23;20044;-79
2024/02/06 16:49:25;;;;;;;0.10;0.10;;;13.50;84.10;;;;;;6159558;23;20066;-79
2024/02/06 16:51:51;;;;;;;0.00;0.00;;;13.50;84.20;;;;;;6131240;23;20005;-79
2024/02/06 16:54:17;;;;;;;0.10;0.10;;;13.40;84.30;;;;;;6132991;23;20012;-80
2024/02/06 16:56:43;;;;;;;0.10;0.10;;;13.40;84.40;;;;;;6159443;23;20005;-85
2024/02/06 16:59:09;;;;;;;0.10;0.10;;;13.40;84.30;;;;;;6158545;23;20311;-82
2024/02/06 17:01:35;;;;;;;0.10;0.10;;;13.50;84.40;;;;;;6149832;23;20013;-77
2024/02/06 17:04:00;;;;;;;0.10;0.10;;;13.40;84.40;;;;;;6157190;23;20005;-79
2024/02/06 17:06:26;;;;;;;0.10;0.10;;;13.40;84.60;;;;;;6157488;23;20421;-80
2024/02/06 17:08:52;;;;;;;0.10;0.10;;;13.40;84.50;;;;;;6156731;23;20001;-79
2024/02/06 17:11:20;;;;;;;0.10;0.10;;;13.40;84.50;;;;;;6131847;23;20052;-79
2024/02/06 17:13:46;;;;;;;0.10;0.10;;;13.30;84.70;;;;;;6131702;23;20081;-79
2024/02/06 17:16:12;;;;;;;0.10;0.10;;;13.30;84.80;;;;;;6132315;23;20012;-79
2024/02/06 17:18:38;;;;;;;0.10;0.10;;;13.40;84.80;;;;;;6157175;23;20020;-79
2024/02/06 17:21:04;;;;;;;0.10;0.10;;;13.30;84.80;;;;;;6157529;23;20002;-77
2024/02/06 17:23:29;;;;;;;0.10;0.10;;;13.30;84.90;;;;;;6131870;23;20425;-79
2024/02/06 17:25:57;;;;;;;0.10;0.10;;;13.30;84.90;;;;;;6158158;23;20012;-80
2024/02/06 17:28:23;;;;;;;0.00;0.00;;;13.30;84.80;;;;;;6154395;23;20006;-77
2024/02/06 17:30:49;;;;;;;0.10;0.10;;;13.40;84.80;;;;;;6157686;23;20013;-80
2024/02/06 17:33:15;;;;;;;0.10;0.10;;;13.30;84.80;;;;;;6158288;23;20430;-78
2024/02/06 17:35:42;;;;;;;0.10;0.10;;;13.30;84.80;;;;;;6150528;23;20033;-80
2024/02/06 17:38:08;;;;;;;0.10;0.10;;;13.30;85.10;;;;;;6126465;23;20017;-79
2024/02/06 17:40:34;;;;;;;0.10;0.10;;;13.30;85.00;;;;;;6131378;23;20013;-79
2024/02/06 17:43:01;;;;;;;0.00;0.00;;;13.40;85.00;;;;;;6156609;23;20061;-79
2024/02/06 17:45:27;;;;;;;0.00;0.00;;;13.40;84.90;;;;;;6156798;23;20010;-77
2024/02/06 17:47:53;;;;;;;0.10;0.10;;;13.30;84.90;;;;;;6155393;23;20001;-79
2024/02/06 17:50:19;;;;;;;0.10;0.10;;;13.30;84.90;;;;;;6157436;23;20029;-80
2024/02/06 17:52:45;;;;;;;0.10;0.10;;;13.30;85.00;;;;;;6130053;23;20006;-79
2024/02/06 17:55:10;;;;;;;0.10;0.10;;;13.30;84.90;;;;;;6131246;23;20083;-79
2024/02/06 17:57:36;;;;;;;0.10;0.10;;;13.30;84.90;;;;;;6131639;23;20066;-88
2024/02/06 18:00:06;;;;;;;0.10;0.10;;;13.40;84.90;;;;;;6156134;23;19998;-87
2024/02/06 18:02:32;;;;;;;0.10;0.10;;;13.40;84.80;;;;;;6157686;23;19997;-86
2024/02/06 18:04:57;;;;;;;0.00;0.00;;;13.40;84.90;;;;;;6133335;23;20460;-88
2024/02/06 18:07:23;;;;;;;0.10;0.10;;;13.30;85.10;;;;;;6160323;23;20084;-86
2024/02/06 18:09:49;;;;;;;0.10;0.10;;;13.30;85.10;;;;;;6159942;23;20012;-88
2024/02/06 18:12:17;;;;;;;0.10;0.10;;;13.30;85.20;;;;;;6134049;23;20013;-86
2024/02/06 18:14:42;;;;;;;0.10;0.10;;;13.30;85.40;;;;;;6159935;23;20001;-85